createdAt,value
2023-03-07T00:01:08.702Z,99.90
2023-03-07T00:03:37.060Z,99.90
2023-03-07T00:06:10.459Z,99.90
2023-03-07T00:08:37.793Z,99.90
2023-03-07T00:11:07.306Z,99.90
2023-03-07T00:13:35.850Z,99.90
2023-03-07T00:16:05.007Z,99.90
2023-03-07T00:21:01.327Z,99.90
2023-03-07T00:23:28.462Z,99.90
2023-03-07T00:26:04.235Z,99.90
2023-03-07T00:28:31.783Z,99.90
2023-03-07T00:31:03.704Z,99.90
2023-03-07T00:33:31.124Z,99.90
2023-03-07T00:36:18.954Z,99.90
2023-03-07T00:38:46.942Z,99.90
2023-03-07T00:41:26.044Z,99.90
2023-03-07T00:43:54.055Z,99.90
2023-03-07T00:46:23.127Z,99.90
2023-03-07T00:48:50.132Z,99.90
2023-03-07T00:51:18.446Z,99.90
2023-03-07T00:53:45.464Z,99.90
2023-03-07T00:56:16.745Z,99.90
2023-03-07T00:58:44.238Z,99.90
2023-03-07T01:01:13.647Z,99.90
2023-03-07T01:03:40.658Z,99.90
2023-03-07T01:06:15.036Z,99.90
2023-03-07T01:08:42.241Z,99.90
2023-03-07T01:11:10.809Z,99.90
2023-03-07T01:13:37.786Z,99.90
2023-03-07T01:16:23.336Z,99.90
2023-03-07T01:18:56.224Z,99.90
2023-03-07T01:21:24.606Z,99.90
2023-03-07T01:23:52.544Z,99.90
2023-03-07T01:26:25.798Z,99.90
2023-03-07T01:28:55.174Z,99.90
2023-03-07T01:31:22.480Z,99.90
2023-03-07T01:33:51.510Z,99.90
2023-03-07T01:36:25.583Z,99.90
2023-03-07T01:38:55.822Z,99.90
2023-03-07T01:41:22.991Z,99.90
2023-03-07T01:43:50.261Z,99.90
2023-03-07T01:46:34.622Z,99.90
2023-03-07T01:49:07.704Z,99.90
2023-03-07T01:51:36.679Z,99.90
2023-03-07T01:54:06.592Z,99.90
2023-03-07T01:56:36.676Z,99.90
2023-03-07T01:59:04.540Z,99.90
2023-03-07T02:01:32.399Z,99.90
2023-03-07T02:04:32.387Z,99.90
2023-03-07T02:07:01.511Z,99.90
2023-03-07T02:09:31.143Z,99.90
2023-03-07T02:12:00.735Z,99.90
2023-03-07T02:14:27.788Z,99.90
2023-03-07T02:16:54.870Z,99.90
2023-03-07T02:19:50.938Z,99.90
2023-03-07T02:22:19.180Z,99.90
2023-03-07T02:24:56.745Z,99.90
2023-03-07T02:27:25.849Z,99.90
2023-03-07T02:29:53.193Z,99.90
2023-03-07T02:34:47.525Z,99.90
2023-03-07T02:37:23.943Z,99.90
2023-03-07T02:42:23.529Z,99.90
2023-03-07T02:44:59.976Z,99.90
2023-03-07T02:47:27.291Z,99.90
2023-03-07T02:49:54.559Z,99.90
2023-03-07T02:52:22.385Z,99.90
2023-03-07T02:54:49.352Z,99.90
2023-03-07T02:59:43.638Z,99.90
2023-03-07T03:04:38.058Z,99.90
2023-03-07T03:11:59.874Z,99.90
2023-03-07T03:14:26.865Z,99.90
2023-03-07T03:16:54.510Z,99.90
2023-03-07T03:19:21.879Z,99.90
2023-03-07T03:21:48.982Z,99.90
2023-03-07T03:24:15.965Z,99.90
2023-03-07T03:26:42.891Z,99.90
2023-03-07T03:29:10.252Z,99.90
2023-03-07T03:31:37.452Z,99.90
2023-03-07T03:34:05.752Z,99.90
2023-03-07T03:36:32.921Z,99.90
2023-03-07T03:39:00.512Z,99.90
2023-03-07T03:41:27.462Z,99.90
2023-03-07T03:43:54.324Z,99.90
2023-03-07T03:46:21.390Z,99.90
2023-03-07T03:48:53.600Z,99.90
2023-03-07T03:51:21.658Z,99.90
2023-03-07T03:53:48.649Z,99.90
2023-03-07T03:56:18.276Z,99.90
2023-03-07T03:58:48.268Z,99.90
2023-03-07T04:01:15.348Z,99.90
2023-03-07T04:03:45.545Z,99.90
2023-03-07T04:06:16.166Z,99.90
2023-03-07T04:08:43.348Z,99.90
2023-03-07T04:11:10.531Z,99.90
2023-03-07T04:13:37.653Z,99.90
2023-03-07T04:16:05.313Z,99.90
2023-03-07T04:18:32.394Z,99.90
2023-03-07T04:20:59.485Z,99.90
2023-03-07T04:23:27.732Z,99.90
2023-03-07T04:25:59.758Z,99.90
2023-03-07T04:29:01.820Z,99.90
2023-03-07T04:31:29.228Z,99.90
2023-03-07T04:33:57.549Z,99.90
2023-03-07T04:36:25.435Z,99.90
2023-03-07T04:38:52.340Z,99.90
2023-03-07T04:41:26.233Z,99.90
2023-03-07T04:43:53.353Z,99.90
2023-03-07T04:46:20.899Z,99.90
2023-03-07T04:48:48.031Z,99.90
2023-03-07T04:51:15.353Z,99.90
2023-03-07T04:53:42.314Z,99.90
2023-03-07T04:56:10.530Z,99.90
2023-03-07T04:58:37.892Z,99.90
2023-03-07T05:01:05.994Z,99.90
2023-03-07T05:03:33.157Z,99.90
2023-03-07T05:06:06.011Z,99.90
2023-03-07T05:08:33.343Z,99.90
2023-03-07T05:11:00.216Z,99.90
2023-03-07T05:13:27.177Z,99.90
2023-03-07T05:15:56.698Z,99.90
2023-03-07T05:18:24.068Z,99.90
2023-03-07T05:20:51.700Z,99.90
2023-03-07T05:23:19.739Z,99.90
2023-03-07T05:25:50.149Z,99.90
2023-03-07T05:28:17.862Z,99.90
2023-03-07T05:30:46.499Z,99.90
2023-03-07T05:33:13.998Z,99.90
2023-03-07T05:35:41.129Z,99.90
2023-03-07T05:38:08.497Z,99.90
2023-03-07T05:40:35.670Z,99.90
2023-03-07T05:43:02.835Z,99.90
2023-03-07T05:45:29.989Z,99.90
2023-03-07T05:47:57.305Z,99.90
2023-03-07T05:50:24.448Z,99.90
2023-03-07T05:52:53.164Z,99.90
2023-03-07T05:55:20.339Z,99.90
2023-03-07T05:57:47.570Z,99.90
2023-03-07T06:00:16.188Z,99.90
2023-03-07T06:02:43.299Z,99.90
2023-03-07T06:05:10.485Z,99.90
2023-03-07T06:07:37.510Z,99.90
2023-03-07T06:10:04.998Z,99.90
2023-03-07T06:12:31.833Z,99.90
2023-03-07T06:14:58.862Z,99.90
2023-03-07T06:17:25.925Z,99.90
2023-03-07T06:19:52.832Z,99.90
2023-03-07T06:22:19.785Z,99.90
2023-03-07T06:24:46.871Z,99.90
2023-03-07T06:27:13.922Z,99.90
2023-03-07T06:29:40.898Z,99.90
2023-03-07T06:32:07.918Z,99.90
2023-03-07T06:34:34.918Z,99.90
2023-03-07T06:37:01.825Z,99.90
2023-03-07T06:39:31.211Z,99.90
2023-03-07T06:41:58.233Z,99.90
2023-03-07T06:44:25.120Z,99.90
2023-03-07T06:46:52.177Z,99.90
2023-03-07T06:49:19.029Z,99.90
2023-03-07T06:51:45.966Z,99.90
2023-03-07T06:54:12.836Z,99.90
2023-03-07T06:56:39.983Z,99.90
2023-03-07T06:59:06.852Z,99.90
2023-03-07T07:01:35.728Z,99.90
2023-03-07T07:04:02.873Z,99.90
2023-03-07T07:06:29.836Z,99.90
2023-03-07T07:08:58.697Z,99.90
2023-03-07T07:11:26.555Z,99.90
2023-03-07T07:13:53.680Z,99.90
2023-03-07T07:16:20.674Z,99.90
2023-03-07T07:21:14.802Z,99.90
2023-03-07T07:23:41.885Z,99.90
2023-03-07T07:26:09.118Z,96.10
2023-03-07T07:31:04.179Z,91.10
2023-03-07T07:33:31.839Z,84.40
2023-03-07T07:35:58.801Z,82.00
2023-03-07T07:38:25.682Z,80.30
2023-03-07T07:40:52.623Z,75.20
2023-03-07T07:43:19.500Z,73.60
2023-03-07T07:45:46.363Z,72.30
2023-03-07T07:48:13.258Z,70.10
2023-03-07T07:50:40.652Z,69.00
2023-03-07T07:53:07.680Z,65.50
2023-03-07T07:55:34.565Z,63.30
2023-03-07T07:58:01.383Z,61.70
2023-03-07T08:00:28.689Z,60.10
2023-03-07T08:02:55.740Z,58.40
2023-03-07T08:05:23.011Z,56.90
2023-03-07T08:07:50.565Z,56.20
2023-03-07T08:10:18.179Z,55.40
2023-03-07T08:12:47.915Z,53.20
2023-03-07T08:15:17.135Z,52.30
2023-03-07T08:17:44.571Z,50.60
2023-03-07T08:20:11.816Z,48.30
2023-03-07T08:22:39.135Z,48.70
2023-03-07T08:25:07.517Z,46.80
2023-03-07T08:27:34.688Z,46.40
2023-03-07T08:30:01.722Z,45.90
2023-03-07T08:32:28.719Z,44.40
2023-03-07T08:34:55.633Z,43.90
2023-03-07T08:37:22.602Z,43.50
2023-03-07T08:39:49.496Z,41.90
2023-03-07T08:42:16.476Z,40.90
2023-03-07T08:44:43.443Z,41.00
2023-03-07T08:47:12.236Z,40.30
2023-03-07T08:49:40.134Z,39.60
2023-03-07T08:52:07.184Z,40.20
2023-03-07T08:54:34.146Z,40.80
2023-03-07T08:57:01.038Z,43.70
2023-03-07T08:59:28.030Z,48.20
2023-03-07T09:01:56.989Z,51.60
2023-03-07T09:04:24.465Z,54.60
2023-03-07T09:06:51.980Z,53.50
2023-03-07T09:09:18.956Z,51.90
2023-03-07T09:11:45.749Z,52.00
2023-03-07T09:14:12.568Z,52.00
2023-03-07T09:16:39.539Z,51.80
2023-03-07T09:19:06.604Z,52.60
2023-03-07T09:21:33.458Z,51.30
2023-03-07T09:24:00.328Z,52.40
2023-03-07T09:26:27.398Z,53.30
2023-03-07T09:28:54.366Z,53.30
2023-03-07T09:31:21.596Z,52.10
2023-03-07T09:33:48.910Z,51.70
2023-03-07T09:36:18.089Z,52.20
2023-03-07T09:38:45.680Z,53.60
2023-03-07T09:41:21.499Z,55.60
2023-03-07T09:44:01.190Z,56.10
2023-03-07T09:46:46.998Z,59.20
2023-03-07T09:49:18.231Z,61.20
2023-03-07T09:51:50.404Z,63.40
2023-03-07T09:54:53.297Z,63.40
2023-03-07T09:57:26.398Z,62.70
2023-03-07T09:59:58.519Z,59.20
2023-03-07T10:02:39.254Z,56.30
2023-03-07T10:05:08.811Z,53.70
2023-03-07T10:07:36.218Z,52.10
2023-03-07T10:10:11.064Z,50.70
2023-03-07T10:13:02.541Z,49.40
2023-03-07T10:15:54.156Z,49.10
2023-03-07T10:18:39.302Z,48.40
2023-03-07T10:21:32.970Z,50.80
2023-03-07T10:24:06.210Z,53.30
2023-03-07T10:26:35.285Z,54.70
2023-03-07T10:29:21.989Z,56.30
2023-03-07T10:31:55.357Z,57.00
2023-03-07T10:34:28.771Z,57.80
2023-03-07T10:37:09.510Z,59.70
2023-03-07T10:39:44.781Z,62.60
2023-03-07T10:42:13.789Z,65.90
2023-03-07T10:44:41.984Z,68.40
2023-03-07T10:47:14.932Z,69.70
2023-03-07T10:49:46.062Z,71.50
2023-03-07T10:52:35.262Z,73.00
2023-03-07T10:55:33.050Z,74.90
2023-03-07T10:58:32.477Z,75.60
2023-03-07T11:01:08.518Z,76.50
2023-03-07T11:03:55.890Z,77.50
2023-03-07T11:06:41.544Z,76.90
2023-03-07T11:09:17.025Z,75.70
2023-03-07T11:12:11.439Z,73.70
2023-03-07T11:14:50.380Z,73.30
2023-03-07T11:17:39.093Z,72.40
2023-03-07T11:20:21.762Z,72.90
2023-03-07T11:22:48.767Z,73.40
2023-03-07T11:25:25.902Z,73.60
2023-03-07T11:27:55.711Z,73.30
2023-03-07T11:30:25.683Z,73.70
2023-03-07T11:32:54.096Z,75.40
2023-03-07T11:35:24.916Z,76.80
2023-03-07T11:38:14.073Z,78.10
2023-03-07T11:40:50.853Z,79.00
2023-03-07T11:43:44.257Z,80.60
2023-03-07T11:46:17.070Z,81.80
2023-03-07T11:49:01.626Z,83.00
2023-03-07T11:52:12.859Z,83.90
2023-03-07T11:54:42.432Z,85.70
2023-03-07T11:57:38.198Z,87.50
2023-03-07T12:00:38.378Z,88.70
2023-03-07T12:03:08.101Z,90.40
2023-03-07T12:05:58.249Z,91.80
2023-03-07T12:08:36.332Z,92.10
2023-03-07T12:11:38.437Z,93.70
2023-03-07T12:14:08.311Z,96.20
2023-03-07T12:17:01.888Z,97.40
2023-03-07T12:19:59.139Z,98.70
2023-03-07T12:22:35.583Z,98.80
2023-03-07T12:25:08.581Z,99.90
2023-03-07T12:28:07.060Z,99.90
2023-03-07T12:31:05.953Z,99.90
2023-03-07T12:33:51.801Z,99.90
2023-03-07T12:36:44.640Z,99.90
2023-03-07T12:39:37.262Z,99.90
2023-03-07T12:42:28.168Z,99.90
2023-03-07T12:45:08.659Z,99.90
2023-03-07T12:47:54.208Z,99.90
2023-03-07T12:50:33.619Z,99.90
2023-03-07T12:53:05.592Z,99.90
2023-03-07T12:55:38.780Z,99.90
2023-03-07T12:58:13.474Z,99.90
2023-03-07T13:00:45.371Z,99.90
2023-03-07T13:03:21.225Z,99.90
2023-03-07T13:05:48.597Z,99.90
2023-03-07T13:08:23.536Z,99.90
2023-03-07T13:10:51.236Z,99.90
2023-03-07T13:13:43.449Z,99.90
2023-03-07T13:16:40.542Z,99.90
2023-03-07T13:19:29.319Z,99.90
2023-03-07T13:21:56.397Z,99.90
2023-03-07T13:24:44.773Z,99.90
2023-03-07T13:27:27.343Z,99.90
2023-03-07T13:30:12.858Z,99.90
2023-03-07T13:32:51.960Z,99.90
2023-03-07T13:35:31.287Z,99.90
2023-03-07T13:38:32.526Z,99.90
2023-03-07T13:41:04.577Z,99.90
2023-03-07T13:43:35.645Z,99.90
2023-03-07T13:46:36.426Z,99.90
2023-03-07T13:49:03.984Z,99.90
2023-03-07T13:51:31.026Z,99.90
2023-03-07T13:54:04.575Z,99.90
2023-03-07T13:56:37.194Z,99.90
2023-03-07T13:59:10.231Z,99.90
2023-03-07T14:01:44.134Z,99.90
2023-03-07T14:04:43.197Z,99.90
2023-03-07T14:07:31.972Z,99.90
2023-03-07T14:10:23.537Z,99.90
2023-03-07T14:13:01.237Z,99.90
2023-03-07T14:15:33.982Z,99.90
2023-03-07T14:18:04.257Z,99.90
2023-03-07T14:21:06.994Z,99.90
2023-03-07T14:24:11.515Z,99.90
2023-03-07T14:26:44.992Z,99.90
2023-03-07T14:29:26.164Z,99.90
2023-03-07T14:31:56.965Z,99.90
2023-03-07T14:34:36.275Z,99.90
2023-03-07T14:37:07.941Z,99.90
2023-03-07T14:39:59.977Z,99.90
2023-03-07T14:42:44.899Z,99.90
2023-03-07T14:45:32.557Z,99.90
2023-03-07T14:48:11.353Z,99.90
2023-03-07T14:50:44.329Z,99.90
2023-03-07T14:53:43.448Z,99.90
2023-03-07T14:56:11.122Z,99.90
2023-03-07T14:58:49.490Z,99.90
2023-03-07T15:01:19.757Z,99.90
2023-03-07T15:03:54.398Z,99.90
2023-03-07T15:06:25.026Z,99.90
2023-03-07T15:08:55.355Z,99.90
2023-03-07T15:12:03.785Z,99.90
2023-03-07T15:14:44.758Z,99.90
2023-03-07T15:17:19.174Z,99.90
2023-03-07T15:19:51.629Z,99.90
2023-03-07T15:22:25.474Z,99.90
2023-03-07T15:24:53.078Z,99.90
2023-03-07T15:27:31.843Z,99.90
2023-03-07T15:30:00.991Z,99.90
2023-03-07T15:32:31.064Z,99.90
2023-03-07T15:35:03.898Z,99.90
2023-03-07T15:37:35.070Z,99.90
2023-03-07T15:40:10.597Z,99.90
2023-03-07T15:43:15.524Z,99.90
2023-03-07T15:45:45.711Z,99.90
2023-03-07T15:53:10.614Z,99.90
2023-03-07T15:55:39.345Z,99.90
2023-03-07T15:58:14.106Z,99.90
2023-03-07T16:00:42.274Z,99.90
2023-03-07T16:03:29.983Z,99.90
2023-03-07T16:05:59.613Z,99.90
2023-03-07T16:08:27.750Z,99.90
2023-03-07T16:11:06.858Z,99.90
2023-03-07T16:13:42.747Z,99.90
2023-03-07T16:16:12.737Z,99.90
2023-03-07T16:18:40.831Z,99.90
2023-03-07T16:21:13.913Z,99.90
2023-03-07T16:23:41.381Z,99.90
2023-03-07T16:26:12.236Z,99.90
2023-03-07T16:28:39.978Z,99.90
2023-03-07T16:31:16.163Z,99.90
2023-03-07T16:41:19.761Z,99.90
2023-03-07T16:46:18.924Z,99.90
2023-03-07T16:51:19.422Z,99.90
2023-03-07T16:56:28.104Z,99.90
2023-03-07T17:11:19.945Z,99.90
2023-03-07T17:13:49.333Z,99.90
2023-03-07T17:16:17.033Z,99.90
2023-03-07T17:21:14.451Z,99.90
2023-03-07T17:26:26.496Z,99.90
2023-03-07T17:28:54.267Z,99.90
2023-03-07T17:41:15.526Z,99.90
2023-03-07T17:46:11.502Z,99.90
2023-03-07T17:51:10.583Z,99.90
2023-03-07T17:53:39.119Z,99.90
2023-03-07T17:56:11.528Z,99.90
2023-03-07T18:01:08.533Z,99.90
2023-03-07T18:16:07.306Z,99.90
2023-03-07T18:18:37.242Z,99.90
2023-03-07T18:21:11.728Z,99.90
2023-03-07T18:26:14.025Z,99.90
2023-03-07T18:28:43.274Z,99.90
2023-03-07T18:31:14.537Z,99.90
2023-03-07T18:36:13.565Z,99.90
2023-03-07T18:38:41.196Z,99.90
2023-03-07T18:41:16.476Z,99.90
2023-03-07T18:46:14.632Z,99.90
2023-03-07T18:51:11.588Z,99.90
2023-03-07T18:56:09.123Z,99.90
2023-03-07T19:01:17.387Z,99.90
2023-03-07T19:06:15.055Z,99.90
2023-03-07T19:11:12.326Z,99.90
2023-03-07T19:13:40.342Z,99.90
2023-03-07T19:16:13.365Z,99.90
2023-03-07T19:21:13.869Z,99.90
2023-03-07T19:23:42.051Z,99.90
2023-03-07T19:26:12.506Z,99.90
2023-03-07T19:31:09.488Z,99.90
2023-03-07T19:33:38.028Z,99.90
2023-03-07T19:36:07.621Z,99.90
2023-03-07T19:41:05.408Z,99.90
2023-03-07T19:48:30.108Z,99.90
2023-03-07T19:50:57.391Z,99.90
2023-03-07T20:03:19.772Z,99.90
2023-03-07T20:05:48.969Z,99.90
2023-03-07T20:15:43.011Z,99.90
2023-03-07T20:25:32.929Z,99.90
2023-03-07T20:27:59.749Z,99.90
2023-03-07T20:40:17.797Z,99.90
2023-03-07T20:52:36.485Z,99.90
2023-03-07T21:00:00.530Z,99.90
2023-03-07T21:02:27.628Z,99.90
2023-03-07T21:12:18.287Z,99.90
2023-03-07T21:14:45.306Z,99.90
2023-03-07T21:17:13.320Z,99.90
2023-03-07T21:19:40.312Z,99.90
2023-03-07T21:22:07.690Z,99.90
2023-03-07T21:24:34.584Z,99.90
2023-03-07T21:27:01.870Z,99.90
2023-03-07T21:29:28.891Z,99.90
2023-03-07T21:39:24.523Z,99.90
2023-03-07T21:49:14.838Z,99.90
2023-03-07T21:56:37.597Z,99.90
2023-03-07T22:04:00.382Z,99.90
2023-03-07T22:06:28.603Z,99.90
2023-03-07T22:08:55.898Z,99.90
2023-03-07T22:16:20.951Z,99.90
2023-03-07T22:18:56.067Z,99.90
2023-03-07T22:21:27.912Z,99.90
2023-03-07T22:23:58.282Z,99.90
2023-03-07T22:26:26.119Z,99.90
2023-03-07T22:28:54.166Z,99.90
2023-03-07T22:41:15.019Z,99.90
2023-03-07T22:43:42.431Z,99.90
2023-03-07T22:46:10.195Z,99.90
2023-03-07T22:48:37.529Z,99.90
2023-03-07T22:51:04.627Z,99.90
2023-03-07T22:53:32.957Z,99.90
2023-03-07T22:56:00.538Z,99.90
2023-03-07T22:58:29.262Z,99.90
2023-03-07T23:00:56.623Z,99.90
2023-03-07T23:03:23.810Z,99.90
2023-03-07T23:05:51.065Z,99.90
2023-03-07T23:08:18.094Z,99.90
2023-03-07T23:10:45.120Z,99.90
2023-03-07T23:13:12.325Z,99.90
2023-03-07T23:15:41.538Z,99.90
2023-03-07T23:20:38.962Z,99.90
2023-03-07T23:23:06.180Z,99.90
2023-03-07T23:25:33.319Z,99.90
2023-03-07T23:28:00.585Z,99.90
2023-03-07T23:30:27.465Z,99.90
2023-03-07T23:32:55.307Z,99.90
2023-03-07T23:35:22.185Z,99.90
2023-03-07T23:37:49.103Z,99.90
2023-03-07T23:40:16.012Z,99.90
2023-03-07T23:42:42.892Z,99.90
2023-03-07T23:45:10.061Z,99.90
2023-03-07T23:47:37.006Z,99.90
2023-03-07T23:50:04.211Z,99.90
2023-03-07T23:52:31.057Z,99.90
2023-03-07T23:54:57.870Z,99.90
2023-03-07T23:57:24.835Z,99.90
2023-03-07T23:59:52.210Z,99.90
